sensor_id;sensor_type;location;lat;lon;timestamp;pressure;altitude;pressure_sealevel;temperature;humidity
11523;BME280;40093;43.224;27.910;2022-10-04T00:01:02;100295.56;;;14.51;96.80
11523;BME280;40093;43.224;27.910;2022-10-04T00:03:33;100284.06;;;14.56;95.59
11523;BME280;40093;43.224;27.910;2022-10-04T00:06:01;100291.47;;;14.69;93.40
11523;BME280;40093;43.224;27.910;2022-10-04T00:08:36;100285.69;;;14.50;93.02
11523;BME280;40093;43.224;27.910;2022-10-04T00:11:14;100303.69;;;14.72;92.17
11523;BME280;40093;43.224;27.910;2022-10-04T00:13:47;100303.34;;;14.70;91.96
11523;BME280;40093;43.224;27.910;2022-10-04T00:16:21;100304.22;;;14.56;91.68
11523;BME280;40093;43.224;27.910;2022-10-04T00:19:00;100305.28;;;14.73;91.33
11523;BME280;40093;43.224;27.910;2022-10-04T00:24:29;100319.25;;;14.59;91.58
11523;BME280;40093;43.224;27.910;2022-10-04T00:27:18;100323.31;;;14.44;92.87
11523;BME280;40093;43.224;27.910;2022-10-04T00:29:50;100298.91;;;14.28;93.13
11523;BME280;40093;43.224;27.910;2022-10-04T00:32:47;100324.09;;;14.41;93.44
11523;BME280;40093;43.224;27.910;2022-10-04T00:35:44;100328.19;;;14.15;94.48
11523;BME280;40093;43.224;27.910;2022-10-04T00:38:13;100326.16;;;14.30;94.59
11523;BME280;40093;43.224;27.910;2022-10-04T00:40:45;100317.91;;;14.16;94.79
11523;BME280;40093;43.224;27.910;2022-10-04T00:43:17;100320.63;;;14.26;95.04
11523;BME280;40093;43.224;27.910;2022-10-04T00:45:50;100330.03;;;14.43;94.10
11523;BME280;40093;43.224;27.910;2022-10-04T00:48:31;100320.09;;;14.49;93.49
11523;BME280;40093;43.224;27.910;2022-10-04T00:51:03;100309.50;;;14.40;91.99
11523;BME280;40093;43.224;27.910;2022-10-04T00:53:40;100309.91;;;14.32;91.09
11523;BME280;40093;43.224;27.910;2022-10-04T00:56:13;100308.13;;;13.97;92.37
11523;BME280;40093;43.224;27.910;2022-10-04T00:58:48;100307.78;;;13.85;94.20
11523;BME280;40093;43.224;27.910;2022-10-04T01:01:20;100296.72;;;13.85;93.97
11523;BME280;40093;43.224;27.910;2022-10-04T01:03:50;100313.66;;;13.97;93.32
11523;BME280;40093;43.224;27.910;2022-10-04T01:06:21;100309.22;;;14.14;92.10
11523;BME280;40093;43.224;27.910;2022-10-04T01:08:51;100315.97;;;14.09;91.41
11523;BME280;40093;43.224;27.910;2022-10-04T01:11:24;100319.50;;;14.10;91.17
11523;BME280;40093;43.224;27.910;2022-10-04T01:13:56;100321.16;;;14.00;91.56
11523;BME280;40093;43.224;27.910;2022-10-04T01:16:25;100317.97;;;14.05;91.26
11523;BME280;40093;43.224;27.910;2022-10-04T01:18:53;100330.59;;;14.10;91.45
11523;BME280;40093;43.224;27.910;2022-10-04T01:21:24;100331.03;;;13.98;92.07
11523;BME280;40093;43.224;27.910;2022-10-04T01:24:15;100329.06;;;14.05;91.67
11523;BME280;40093;43.224;27.910;2022-10-04T01:26:43;100336.91;;;14.10;91.69
11523;BME280;40093;43.224;27.910;2022-10-04T01:29:13;100343.22;;;14.18;91.33
11523;BME280;40093;43.224;27.910;2022-10-04T01:31:42;100333.72;;;14.22;90.77
11523;BME280;40093;43.224;27.910;2022-10-04T01:34:12;100328.56;;;14.21;90.56
11523;BME280;40093;43.224;27.910;2022-10-04T01:36:40;100304.53;;;14.04;91.21
11523;BME280;40093;43.224;27.910;2022-10-04T01:39:08;100331.38;;;14.14;90.77
11523;BME280;40093;43.224;27.910;2022-10-04T01:41:41;100332.94;;;14.15;91.36
11523;BME280;40093;43.224;27.910;2022-10-04T01:44:17;100337.69;;;14.21;90.86
11523;BME280;40093;43.224;27.910;2022-10-04T01:46:48;100337.66;;;14.25;90.66
11523;BME280;40093;43.224;27.910;2022-10-04T01:49:18;100342.41;;;14.21;91.02
11523;BME280;40093;43.224;27.910;2022-10-04T01:51:52;100342.75;;;14.33;90.49
11523;BME280;40093;43.224;27.910;2022-10-04T01:54:29;100349.13;;;14.20;90.75
11523;BME280;40093;43.224;27.910;2022-10-04T01:56:59;100346.41;;;14.13;91.55
11523;BME280;40093;43.224;27.910;2022-10-04T01:59:34;100348.75;;;14.18;91.90
11523;BME280;40093;43.224;27.910;2022-10-04T02:02:07;100338.56;;;14.01;92.93
11523;BME280;40093;43.224;27.910;2022-10-04T02:04:37;100347.28;;;13.89;93.93
11523;BME280;40093;43.224;27.910;2022-10-04T02:07:10;100342.50;;;14.00;93.94
11523;BME280;40093;43.224;27.910;2022-10-04T02:09:42;100348.00;;;14.10;93.29
11523;BME280;40093;43.224;27.910;2022-10-04T02:12:13;100346.41;;;14.09;92.88
11523;BME280;40093;43.224;27.910;2022-10-04T02:14:44;100347.25;;;14.03;93.26
11523;BME280;40093;43.224;27.910;2022-10-04T02:17:18;100337.81;;;13.90;94.15
11523;BME280;40093;43.224;27.910;2022-10-04T02:19:47;100333.94;;;13.70;94.93
11523;BME280;40093;43.224;27.910;2022-10-04T02:22:15;100346.50;;;13.85;94.27
11523;BME280;40093;43.224;27.910;2022-10-04T02:24:46;100346.13;;;13.86;94.02
11523;BME280;40093;43.224;27.910;2022-10-04T02:27:14;100343.44;;;13.69;94.60
11523;BME280;40093;43.224;27.910;2022-10-04T02:29:41;100333.22;;;13.45;95.75
11523;BME280;40093;43.224;27.910;2022-10-04T02:32:09;100358.88;;;13.45;96.90
11523;BME280;40093;43.224;27.910;2022-10-04T02:34:55;100347.50;;;13.26;98.44
11523;BME280;40093;43.224;27.910;2022-10-04T02:37:24;100353.75;;;13.40;98.29
11523;BME280;40093;43.224;27.910;2022-10-04T02:39:58;100376.69;;;13.16;100.00
11523;BME280;40093;43.224;27.910;2022-10-04T02:42:36;100386.94;;;13.23;100.00
11523;BME280;40093;43.224;27.910;2022-10-04T02:45:08;100384.56;;;13.35;100.00
11523;BME280;40093;43.224;27.910;2022-10-04T02:47:43;100386.50;;;13.56;99.34
11523;BME280;40093;43.224;27.910;2022-10-04T02:50:21;100395.59;;;13.60;97.84
11523;BME280;40093;43.224;27.910;2022-10-04T02:52:53;100396.38;;;13.57;98.13
11523;BME280;40093;43.224;27.910;2022-10-04T02:55:25;100392.78;;;13.67;97.60
11523;BME280;40093;43.224;27.910;2022-10-04T02:57:53;100403.47;;;13.75;96.34
11523;BME280;40093;43.224;27.910;2022-10-04T03:00:24;100390.81;;;13.71;95.89
11523;BME280;40093;43.224;27.910;2022-10-04T03:03:24;100396.34;;;13.71;96.11
11523;BME280;40093;43.224;27.910;2022-10-04T03:05:57;100401.50;;;13.69;95.85
11523;BME280;40093;43.224;27.910;2022-10-04T03:08:27;100393.22;;;13.62;96.27
11523;BME280;40093;43.224;27.910;2022-10-04T03:10:57;100389.28;;;13.42;97.56
11523;BME280;40093;43.224;27.910;2022-10-04T03:13:26;100395.59;;;13.46;97.85
11523;BME280;40093;43.224;27.910;2022-10-04T03:15:53;100406.66;;;13.53;97.59
11523;BME280;40093;43.224;27.910;2022-10-04T03:18:21;100416.91;;;13.56;97.33
11523;BME280;40093;43.224;27.910;2022-10-04T03:20:49;100411.41;;;13.52;97.35
11523;BME280;40093;43.224;27.910;2022-10-04T03:23:17;100429.94;;;13.62;97.25
11523;BME280;40093;43.224;27.910;2022-10-04T03:25:50;100424.00;;;13.57;97.24
11523;BME280;40093;43.224;27.910;2022-10-04T03:28:20;100426.78;;;13.60;96.39
11523;BME280;40093;43.224;27.910;2022-10-04T03:30:47;100444.94;;;13.72;96.04
11523;BME280;40093;43.224;27.910;2022-10-04T03:33:18;100431.91;;;13.65;95.83
11523;BME280;40093;43.224;27.910;2022-10-04T03:35:49;100442.59;;;13.63;96.28
11523;BME280;40093;43.224;27.910;2022-10-04T03:38:17;100442.97;;;13.55;96.47
11523;BME280;40093;43.224;27.910;2022-10-04T03:40:49;100432.75;;;13.38;97.63
11523;BME280;40093;43.224;27.910;2022-10-04T03:43:22;100438.28;;;13.31;98.29
11523;BME280;40093;43.224;27.910;2022-10-04T03:45:50;100440.63;;;13.08;99.59
11523;BME280;40093;43.224;27.910;2022-10-04T03:48:26;100449.34;;;13.17;99.96
11523;BME280;40093;43.224;27.910;2022-10-04T03:50:54;100422.84;;;12.98;99.92
11523;BME280;40093;43.224;27.910;2022-10-04T03:53:27;100424.84;;;13.05;100.00
11523;BME280;40093;43.224;27.910;2022-10-04T03:55:55;100447.72;;;13.19;99.99
11523;BME280;40093;43.224;27.910;2022-10-04T03:58:25;100447.34;;;13.17;99.92
11523;BME280;40093;43.224;27.910;2022-10-04T04:01:02;100463.16;;;13.17;100.00
11523;BME280;40093;43.224;27.910;2022-10-04T04:03:42;100458.75;;;12.98;100.00
11523;BME280;40093;43.224;27.910;2022-10-04T04:06:14;100467.47;;;13.00;100.00
11523;BME280;40093;43.224;27.910;2022-10-04T04:08:46;100475.31;;;12.88;100.00
11523;BME280;40093;43.224;27.910;2022-10-04T04:11:18;100483.19;;;12.86;100.00
11523;BME280;40093;43.224;27.910;2022-10-04T04:13:53;100487.94;;;12.89;100.00
11523;BME280;40093;43.224;27.910;2022-10-04T04:16:22;100489.47;;;12.76;100.00
11523;BME280;40093;43.224;27.910;2022-10-04T04:18:51;100497.38;;;12.81;100.00
11523;BME280;40093;43.224;27.910;2022-10-04T04:21:20;100489.13;;;12.88;100.00
11523;BME280;40093;43.224;27.910;2022-10-04T04:23:52;100491.06;;;12.77;100.00
11523;BME280;40093;43.224;27.910;2022-10-04T04:26:25;100489.91;;;12.85;100.00
11523;BME280;40093;43.224;27.910;2022-10-04T04:28:57;100486.38;;;12.91;100.00
11523;BME280;40093;43.224;27.910;2022-10-04T04:31:32;100502.13;;;12.91;100.00
11523;BME280;40093;43.224;27.910;2022-10-04T04:34:03;100506.56;;;13.20;100.00
11523;BME280;40093;43.224;27.910;2022-10-04T04:36:37;100498.28;;;13.62;98.84
11523;BME280;40093;43.224;27.910;2022-10-04T04:39:11;100500.22;;;13.93;95.35
11523;BME280;40093;43.224;27.910;2022-10-04T04:41:57;100500.53;;;14.26;91.70
11523;BME280;40093;43.224;27.910;2022-10-04T04:44:25;100500.91;;;14.39;89.94
11523;BME280;40093;43.224;27.910;2022-10-04T04:46:53;100502.03;;;14.52;89.59
11523;BME280;40093;43.224;27.910;2022-10-04T04:49:21;100485.38;;;14.66;88.03
11523;BME280;40093;43.224;27.910;2022-10-04T04:51:50;100503.81;;;14.93;86.53
11523;BME280;40093;43.224;27.910;2022-10-04T04:54:20;100515.91;;;15.23;85.06
11523;BME280;40093;43.224;27.910;2022-10-04T04:56:50;100518.59;;;15.37;83.52
11523;BME280;40093;43.224;27.910;2022-10-04T04:59:19;100501.63;;;15.28;83.31
11523;BME280;40093;43.224;27.910;2022-10-04T05:01:48;100515.34;;;15.49;82.30
11523;BME280;40093;43.224;27.910;2022-10-04T05:04:18;100513.66;;;15.62;81.11
11523;BME280;40093;43.224;27.910;2022-10-04T05:06:47;100521.66;;;15.97;79.36
11523;BME280;40093;43.224;27.910;2022-10-04T05:09:25;100538.94;;;16.12;78.13
11523;BME280;40093;43.224;27.910;2022-10-04T05:11:57;100537.25;;;16.21;76.84
11523;BME280;40093;43.224;27.910;2022-10-04T05:14:27;100530.72;;;16.01;77.06
11523;BME280;40093;43.224;27.910;2022-10-04T05:16:58;100539.78;;;16.09;77.18
11523;BME280;40093;43.224;27.910;2022-10-04T05:19:27;100545.09;;;15.89;77.67
11523;BME280;40093;43.224;27.910;2022-10-04T05:21:58;100539.25;;;15.33;78.65
11523;BME280;40093;43.224;27.910;2022-10-04T05:24:29;100545.56;;;15.26;80.07
11523;BME280;40093;43.224;27.910;2022-10-04T05:26:59;100540.56;;;15.04;81.34
11523;BME280;40093;43.224;27.910;2022-10-04T05:29:30;100547.81;;;14.84;83.37
11523;BME280;40093;43.224;27.910;2022-10-04T05:32:07;100557.19;;;15.07;82.72
11523;BME280;40093;43.224;27.910;2022-10-04T05:34:39;100557.91;;;15.18;81.53
11523;BME280;40093;43.224;27.910;2022-10-04T05:37:24;100560.69;;;15.76;78.43
11523;BME280;40093;43.224;27.910;2022-10-04T05:40:02;100571.03;;;15.72;77.77
11523;BME280;40093;43.224;27.910;2022-10-04T05:42:36;100569.19;;;15.55;78.27
11523;BME280;40093;43.224;27.910;2022-10-04T05:45:15;100569.63;;;15.50;79.17
11523;BME280;40093;43.224;27.910;2022-10-04T05:47:45;100567.25;;;15.96;77.50
11523;BME280;40093;43.224;27.910;2022-10-04T05:50:16;100573.63;;;16.34;75.69
11523;BME280;40093;43.224;27.910;2022-10-04T05:52:46;100577.88;;;16.82;73.39
11523;BME280;40093;43.224;27.910;2022-10-04T05:55:17;100570.31;;;17.13;72.34
11523;BME280;40093;43.224;27.910;2022-10-04T06:01:00;100591.47;;;17.37;69.78
11523;BME280;40093;43.224;27.910;2022-10-04T06:03:42;100573.19;;;17.06;70.76
11523;BME280;40093;43.224;27.910;2022-10-04T06:06:18;100591.66;;;17.19;71.37
11523;BME280;40093;43.224;27.910;2022-10-04T06:08:55;100601.41;;;17.04;71.87
11523;BME280;40093;43.224;27.910;2022-10-04T06:11:40;100600.97;;;16.76;72.97
11523;BME280;40093;43.224;27.910;2022-10-04T06:14:25;100602.94;;;16.42;74.19
11523;BME280;40093;43.224;27.910;2022-10-04T06:17:17;100596.59;;;16.41;74.88
11523;BME280;40093;43.224;27.910;2022-10-04T06:22:57;100612.53;;;16.30;75.59
11523;BME280;40093;43.224;27.910;2022-10-04T06:25:26;100606.56;;;16.35;75.89
11523;BME280;40093;43.224;27.910;2022-10-04T06:27:57;100618.91;;;16.31;75.96
11523;BME280;40093;43.224;27.910;2022-10-04T06:30:31;100612.41;;;16.44;75.99
11523;BME280;40093;43.224;27.910;2022-10-04T06:33:17;100626.50;;;16.97;74.39
11523;BME280;40093;43.224;27.910;2022-10-04T06:36:03;100631.06;;;17.14;72.35
11523;BME280;40093;43.224;27.910;2022-10-04T06:38:47;100635.78;;;17.17;70.89
11523;BME280;40093;43.224;27.910;2022-10-04T06:41:47;100630.91;;;16.98;72.01
11523;BME280;40093;43.224;27.910;2022-10-04T06:47:39;100635.69;;;16.94;72.11
11523;BME280;40093;43.224;27.910;2022-10-04T06:50:22;100640.50;;;16.90;72.37
11523;BME280;40093;43.224;27.910;2022-10-04T06:53:01;100643.72;;;16.85;72.72
11523;BME280;40093;43.224;27.910;2022-10-04T06:55:44;100645.91;;;17.04;72.73
11523;BME280;40093;43.224;27.910;2022-10-04T06:58:44;100642.53;;;17.20;73.34
11523;BME280;40093;43.224;27.910;2022-10-04T07:01:23;100640.53;;;17.20;72.93
11523;BME280;40093;43.224;27.910;2022-10-04T07:03:56;100643.13;;;17.38;72.52
11523;BME280;40093;43.224;27.910;2022-10-04T07:06:29;100650.69;;;17.63;71.39
11523;BME280;40093;43.224;27.910;2022-10-04T07:09:00;100653.91;;;17.88;68.96
11523;BME280;40093;43.224;27.910;2022-10-04T07:11:36;100648.53;;;18.01;64.11
11523;BME280;40093;43.224;27.910;2022-10-04T07:14:12;100656.50;;;18.48;61.18
11523;BME280;40093;43.224;27.910;2022-10-04T07:16:45;100658.19;;;18.85;60.14
11523;BME280;40093;43.224;27.910;2022-10-04T07:19:28;100651.94;;;19.20;56.12
11523;BME280;40093;43.224;27.910;2022-10-04T07:22:02;100651.34;;;19.48;55.87
11523;BME280;40093;43.224;27.910;2022-10-04T07:24:46;100654.69;;;19.75;55.42
11523;BME280;40093;43.224;27.910;2022-10-04T07:27:21;100652.13;;;20.00;54.48
11523;BME280;40093;43.224;27.910;2022-10-04T07:29:53;100662.88;;;20.33;52.46
11523;BME280;40093;43.224;27.910;2022-10-04T07:32:21;100657.63;;;20.19;51.96
11523;BME280;40093;43.224;27.910;2022-10-04T07:34:53;100660.44;;;20.03;52.50
11523;BME280;40093;43.224;27.910;2022-10-04T07:37:25;100657.22;;;19.69;52.21
11523;BME280;40093;43.224;27.910;2022-10-04T07:39:56;100669.16;;;19.34;54.03
11523;BME280;40093;43.224;27.910;2022-10-04T07:42:30;100663.28;;;19.09;53.19
11523;BME280;40093;43.224;27.910;2022-10-04T07:45:07;100673.88;;;18.98;53.17
11523;BME280;40093;43.224;27.910;2022-10-04T07:47:36;100678.00;;;18.90;53.19
11523;BME280;40093;43.224;27.910;2022-10-04T07:50:19;100671.22;;;19.11;53.29
11523;BME280;40093;43.224;27.910;2022-10-04T07:52:51;100679.19;;;19.32;53.09
11523;BME280;40093;43.224;27.910;2022-10-04T07:55:25;100687.47;;;19.35;54.71
11523;BME280;40093;43.224;27.910;2022-10-04T07:58:28;100679.41;;;19.21;54.02
11523;BME280;40093;43.224;27.910;2022-10-04T08:01:01;100664.28;;;19.74;52.17
11523;BME280;40093;43.224;27.910;2022-10-04T08:03:47;100668.22;;;20.12;52.07
11523;BME280;40093;43.224;27.910;2022-10-04T08:06:22;100679.84;;;20.26;49.84
11523;BME280;40093;43.224;27.910;2022-10-04T08:09:24;100673.28;;;20.17;50.54
11523;BME280;40093;43.224;27.910;2022-10-04T08:12:03;100667.22;;;20.50;49.47
11523;BME280;40093;43.224;27.910;2022-10-04T08:14:44;100667.66;;;20.64;48.46
11523;BME280;40093;43.224;27.910;2022-10-04T08:17:28;100671.00;;;20.27;48.89
11523;BME280;40093;43.224;27.910;2022-10-04T08:20:05;100681.28;;;20.62;47.68
11523;BME280;40093;43.224;27.910;2022-10-04T08:22:49;100684.78;;;20.66;46.97
11523;BME280;40093;43.224;27.910;2022-10-04T08:25:25;100672.91;;;20.62;46.70
11523;BME280;40093;43.224;27.910;2022-10-04T08:28:01;100687.22;;;20.48;46.92
11523;BME280;40093;43.224;27.910;2022-10-04T08:31:01;100700.69;;;21.14;45.64
11523;BME280;40093;43.224;27.910;2022-10-04T08:33:43;100685.78;;;21.45;45.20
11523;BME280;40093;43.224;27.910;2022-10-04T08:36:22;100688.34;;;21.52;44.20
11523;BME280;40093;43.224;27.910;2022-10-04T08:38:55;100698.84;;;21.77;43.35
11523;BME280;40093;43.224;27.910;2022-10-04T08:41:58;100699.19;;;21.91;42.79
11523;BME280;40093;43.224;27.910;2022-10-04T08:45:14;100692.69;;;21.69;43.14
11523;BME280;40093;43.224;27.910;2022-10-04T08:48:12;100695.47;;;21.28;43.97
11523;BME280;40093;43.224;27.910;2022-10-04T08:56:54;100709.91;;;22.30;41.72
11523;BME280;40093;43.224;27.910;2022-10-04T09:05:29;100723.13;;;22.67;42.15
11523;BME280;40093;43.224;27.910;2022-10-04T09:08:34;100725.63;;;22.99;42.05
11523;BME280;40093;43.224;27.910;2022-10-04T09:11:25;100721.38;;;22.61;42.74
11523;BME280;40093;43.224;27.910;2022-10-04T09:14:28;100726.06;;;22.51;42.52
11523;BME280;40093;43.224;27.910;2022-10-04T09:17:06;100735.06;;;22.46;42.30
11523;BME280;40093;43.224;27.910;2022-10-04T09:19:52;100728.34;;;22.31;43.01
11523;BME280;40093;43.224;27.910;2022-10-04T09:22:32;100727.22;;;22.16;43.13
11523;BME280;40093;43.224;27.910;2022-10-04T09:25:46;100729.56;;;22.43;43.04
11523;BME280;40093;43.224;27.910;2022-10-04T09:28:32;100741.34;;;22.50;42.50
11523;BME280;40093;43.224;27.910;2022-10-04T09:31:35;100747.59;;;22.29;42.28
11523;BME280;40093;43.224;27.910;2022-10-04T09:37:30;100741.56;;;21.93;44.28
11523;BME280;40093;43.224;27.910;2022-10-04T09:43:28;100743.88;;;21.70;44.36
11523;BME280;40093;43.224;27.910;2022-10-04T09:46:19;100742.13;;;21.47;45.44
11523;BME280;40093;43.224;27.910;2022-10-04T09:49:00;100748.16;;;21.17;46.20
11523;BME280;40093;43.224;27.910;2022-10-04T09:51:42;100749.75;;;21.02;47.30
11523;BME280;40093;43.224;27.910;2022-10-04T09:57:42;100754.00;;;20.94;47.64
11523;BME280;40093;43.224;27.910;2022-10-04T10:00:16;100743.84;;;20.84;48.35
11523;BME280;40093;43.224;27.910;2022-10-04T10:03:13;100747.88;;;20.83;48.71
11523;BME280;40093;43.224;27.910;2022-10-04T10:06:12;100744.81;;;20.62;49.38
11523;BME280;40093;43.224;27.910;2022-10-04T10:08:56;100752.31;;;20.65;49.40
11523;BME280;40093;43.224;27.910;2022-10-04T10:11:31;100752.84;;;20.76;48.84
11523;BME280;40093;43.224;27.910;2022-10-04T10:17:39;100752.06;;;20.91;47.73
11523;BME280;40093;43.224;27.910;2022-10-04T10:20:24;100757.13;;;20.96;47.84
11523;BME280;40093;43.224;27.910;2022-10-04T10:23:10;100759.50;;;20.98;48.20
11523;BME280;40093;43.224;27.910;2022-10-04T10:26:05;100757.91;;;20.97;48.00
11523;BME280;40093;43.224;27.910;2022-10-04T10:28:53;100758.63;;;21.01;47.89
11523;BME280;40093;43.224;27.910;2022-10-04T10:31:52;100764.97;;;21.01;48.21
11523;BME280;40093;43.224;27.910;2022-10-04T10:34:47;100760.81;;;20.93;48.41
11523;BME280;40093;43.224;27.910;2022-10-04T10:37:32;100760.03;;;20.77;47.75
11523;BME280;40093;43.224;27.910;2022-10-04T10:40:24;100771.63;;;20.75;47.95
11523;BME280;40093;43.224;27.910;2022-10-04T10:43:33;100765.00;;;20.69;47.79
11523;BME280;40093;43.224;27.910;2022-10-04T10:46:22;100767.94;;;20.78;47.21
11523;BME280;40093;43.224;27.910;2022-10-04T10:49:25;100757.31;;;20.73;47.09
11523;BME280;40093;43.224;27.910;2022-10-04T10:55:26;100771.56;;;20.79;47.62
11523;BME280;40093;43.224;27.910;2022-10-04T10:58:16;100762.22;;;20.85;47.11
11523;BME280;40093;43.224;27.910;2022-10-04T11:00:57;100769.72;;;20.88;47.33
11523;BME280;40093;43.224;27.910;2022-10-04T11:03:41;100768.75;;;20.95;47.42
11523;BME280;40093;43.224;27.910;2022-10-04T11:06:44;100766.66;;;20.99;48.11
11523;BME280;40093;43.224;27.910;2022-10-04T11:13:01;100771.81;;;21.00;47.04
11523;BME280;40093;43.224;27.910;2022-10-04T11:15:42;100779.84;;;20.98;47.14
11523;BME280;40093;43.224;27.910;2022-10-04T11:18:47;100777.16;;;20.95;47.43
11523;BME280;40093;43.224;27.910;2022-10-04T11:27:27;100780.56;;;20.86;47.46
11523;BME280;40093;43.224;27.910;2022-10-04T11:30:07;100781.44;;;20.83;47.47
11523;BME280;40093;43.224;27.910;2022-10-04T11:36:23;100774.88;;;20.74;48.37
11523;BME280;40093;43.224;27.910;2022-10-04T11:39:03;100785.78;;;20.68;48.37
11523;BME280;40093;43.224;27.910;2022-10-04T11:41:46;100785.63;;;20.59;48.89
11523;BME280;40093;43.224;27.910;2022-10-04T11:47:36;100779.94;;;20.79;47.98
11523;BME280;40093;43.224;27.910;2022-10-04T11:50:25;100788.34;;;20.79;47.80
11523;BME280;40093;43.224;27.910;2022-10-04T11:53:31;100785.44;;;20.82;47.88
11523;BME280;40093;43.224;27.910;2022-10-04T11:56:23;100787.22;;;20.92;47.80
11523;BME280;40093;43.224;27.910;2022-10-04T11:59:18;100789.41;;;21.01;48.05
11523;BME280;40093;43.224;27.910;2022-10-04T12:02:11;100788.59;;;21.00;47.82
11523;BME280;40093;43.224;27.910;2022-10-04T12:05:17;100792.00;;;21.08;48.20
11523;BME280;40093;43.224;27.910;2022-10-04T12:07:59;100789.56;;;21.10;48.02
11523;BME280;40093;43.224;27.910;2022-10-04T12:10:28;100782.09;;;21.19;47.74
11523;BME280;40093;43.224;27.910;2022-10-04T12:16:33;100794.19;;;21.16;46.99
11523;BME280;40093;43.224;27.910;2022-10-04T12:25:37;100788.41;;;20.59;48.61
11523;BME280;40093;43.224;27.910;2022-10-04T12:28:22;100793.94;;;20.79;47.67
11523;BME280;40093;43.224;27.910;2022-10-04T12:31:12;100798.97;;;20.84;47.36
11523;BME280;40093;43.224;27.910;2022-10-04T12:33:53;100792.00;;;21.08;47.58
11523;BME280;40093;43.224;27.910;2022-10-04T12:36:36;100794.84;;;21.36;46.60
11523;BME280;40093;43.224;27.910;2022-10-04T12:39:21;100801.09;;;21.40;45.23
11523;BME280;40093;43.224;27.910;2022-10-04T12:42:00;100799.88;;;21.41;43.36
11523;BME280;40093;43.224;27.910;2022-10-04T12:44:42;100793.50;;;21.41;43.64
11523;BME280;40093;43.224;27.910;2022-10-04T12:47:49;100805.88;;;21.27;42.52
11523;BME280;40093;43.224;27.910;2022-10-04T12:50:30;100800.53;;;21.33;43.36
11523;BME280;40093;43.224;27.910;2022-10-04T12:53:12;100800.47;;;21.20;45.78
11523;BME280;40093;43.224;27.910;2022-10-04T12:56:05;100804.78;;;21.09;46.06
11523;BME280;40093;43.224;27.910;2022-10-04T12:58:47;100804.09;;;20.89;45.81
11523;BME280;40093;43.224;27.910;2022-10-04T13:01:21;100816.03;;;20.73;46.81
11523;BME280;40093;43.224;27.910;2022-10-04T13:04:12;100808.50;;;20.54;47.95
11523;BME280;40093;43.224;27.910;2022-10-04T13:06:52;100815.19;;;20.60;48.91
11523;BME280;40093;43.224;27.910;2022-10-04T13:09:30;100809.41;;;20.51;49.72
11523;BME280;40093;43.224;27.910;2022-10-04T13:12:09;100821.09;;;20.46;48.98
11523;BME280;40093;43.224;27.910;2022-10-04T13:14:50;100817.66;;;20.39;49.50
11523;BME280;40093;43.224;27.910;2022-10-04T13:17:31;100819.31;;;20.36;49.38
11523;BME280;40093;43.224;27.910;2022-10-04T13:20:19;100819.84;;;20.32;47.99
11523;BME280;40093;43.224;27.910;2022-10-04T13:22:55;100813.38;;;20.19;48.46
11523;BME280;40093;43.224;27.910;2022-10-04T13:25:38;100825.25;;;20.23;49.23
11523;BME280;40093;43.224;27.910;2022-10-04T13:28:16;100822.44;;;20.23;48.86
11523;BME280;40093;43.224;27.910;2022-10-04T13:30:54;100827.16;;;20.26;49.62
11523;BME280;40093;43.224;27.910;2022-10-04T13:33:32;100815.28;;;20.22;49.71
11523;BME280;40093;43.224;27.910;2022-10-04T13:36:06;100826.66;;;20.31;49.74
11523;BME280;40093;43.224;27.910;2022-10-04T13:42:04;100824.22;;;20.48;48.93
11523;BME280;40093;43.224;27.910;2022-10-04T13:44:53;100826.31;;;20.44;49.14
11523;BME280;40093;43.224;27.910;2022-10-04T13:47:54;100823.66;;;20.57;50.27
11523;BME280;40093;43.224;27.910;2022-10-04T13:50:31;100834.09;;;20.53;50.41
11523;BME280;40093;43.224;27.910;2022-10-04T13:53:12;100830.28;;;20.47;49.99
11523;BME280;40093;43.224;27.910;2022-10-04T13:56:01;100848.41;;;20.39;50.51
11523;BME280;40093;43.224;27.910;2022-10-04T13:58:55;100825.78;;;20.33;50.94
11523;BME280;40093;43.224;27.910;2022-10-04T14:01:42;100832.31;;;20.27;50.93
11523;BME280;40093;43.224;27.910;2022-10-04T14:04:35;100835.25;;;20.20;50.90
11523;BME280;40093;43.224;27.910;2022-10-04T14:07:21;100836.94;;;20.18;50.73
11523;BME280;40093;43.224;27.910;2022-10-04T14:10:02;100838.41;;;20.22;51.45
11523;BME280;40093;43.224;27.910;2022-10-04T14:12:58;100848.41;;;20.23;50.92
11523;BME280;40093;43.224;27.910;2022-10-04T14:15:47;100841.66;;;20.21;50.90
11523;BME280;40093;43.224;27.910;2022-10-04T14:22:02;100854.97;;;19.94;57.15
11523;BME280;40093;43.224;27.910;2022-10-04T14:28:21;100857.66;;;19.58;58.63
11523;BME280;40093;43.224;27.910;2022-10-04T14:31:11;100861.41;;;19.52;59.38
11523;BME280;40093;43.224;27.910;2022-10-04T14:34:17;100851.09;;;19.49;59.81
11523;BME280;40093;43.224;27.910;2022-10-04T14:40:26;100862.47;;;19.38;62.41
11523;BME280;40093;43.224;27.910;2022-10-04T14:46:21;100865.19;;;19.19;66.43
11523;BME280;40093;43.224;27.910;2022-10-04T14:49:04;100864.09;;;19.13;67.79
11523;BME280;40093;43.224;27.910;2022-10-04T14:51:43;100878.94;;;19.06;68.44
11523;BME280;40093;43.224;27.910;2022-10-04T14:54:28;100867.03;;;19.02;68.77
11523;BME280;40093;43.224;27.910;2022-10-04T14:57:02;100879.38;;;19.05;68.86
11523;BME280;40093;43.224;27.910;2022-10-04T14:59:38;100883.38;;;19.04;68.75
11523;BME280;40093;43.224;27.910;2022-10-04T15:05:28;100892.94;;;19.03;68.92
11523;BME280;40093;43.224;27.910;2022-10-04T15:08:23;100892.03;;;19.09;69.31